Aviation Digital Data Service (ADDS)

Output produced by METARs form (1420 UTC 28 March 2015)
found at http://aviationweather.gov/adds/metars/
 
KECG 281136Z 2812/2912 31013KT P6SM BKN060 
     FM282300 31008KT P6SM SKC